Time;durP1;ratioP1;P1;durP2;ratioP2;P2;SDS_P1;SDS_P2;PMS_P1;PMS_P2;Temp;Humidity;BMP_temperature;BMP_pressure;BME280_temperature;BME280_humidity;BME280_pressure;Samples;Min_cycle;Max_cycle;Signal;HPM_P1;HPM_P2
2022/01/10 00:02:06;;;;;;;;;;;20.10;36.80;;;;;;5075719;28;19908;-58
2022/01/10 00:04:32;;;;;;;;;;;20.10;36.90;;;;;;5075950;28;19923;-58
2022/01/10 00:06:57;;;;;;;;;;;20.10;36.90;;;;;;5075609;28;19914;-59
2022/01/10 00:09:23;;;;;;;;;;;20.10;36.90;;;;;;5075785;28;19909;-58
2022/01/10 00:11:48;;;;;;;;;;;20.10;36.90;;;;;;5075510;28;20364;-58
2022/01/10 00:14:13;;;;;;;;;;;20.00;36.90;;;;;;5075551;28;19959;-58
2022/01/10 00:16:39;;;;;;;;;;;20.00;36.90;;;;;;5075711;28;19916;-58
2022/01/10 00:19:05;;;;;;;;;;;20.10;36.80;;;;;;5075603;28;19908;-58
2022/01/10 00:21:30;;;;;;;;;;;20.00;36.90;;;;;;5075318;28;19970;-58
2022/01/10 00:23:55;;;;;;;;;;;20.00;36.90;;;;;;5075320;28;19909;-58
2022/01/10 00:26:21;;;;;;;;;;;20.00;36.90;;;;;;5075345;28;19908;-58
2022/01/10 00:28:46;;;;;;;;;;;20.00;36.90;;;;;;5075563;28;19970;-58
2022/01/10 00:31:12;;;;;;;;;;;20.00;36.80;;;;;;5075223;28;19962;-58
2022/01/10 00:33:37;;;;;;;;;;;20.00;36.90;;;;;;5075108;28;19909;-58
2022/01/10 00:36:03;;;;;;;;;;;20.00;36.90;;;;;;5075283;28;19916;-58
2022/01/10 00:38:28;;;;;;;;;;;20.00;36.90;;;;;;5075082;28;20347;-58
2022/01/10 00:40:54;;;;;;;;;;;19.90;36.90;;;;;;5074506;28;19909;-58
2022/01/10 00:43:30;;;;;;;;;;;19.90;36.90;;;;;;5074956;28;19961;-58
2022/01/10 00:45:56;;;;;;;;;;;19.90;36.90;;;;;;5074981;28;19909;-58
2022/01/10 00:48:21;;;;;;;;;;;19.90;36.90;;;;;;5074896;28;19908;-58
2022/01/10 00:50:46;;;;;;;;;;;19.90;36.90;;;;;;5074787;28;19995;-58
2022/01/10 00:53:12;;;;;;;;;;;19.90;36.90;;;;;;5074738;28;19912;-59
2022/01/10 00:55:37;;;;;;;;;;;19.90;36.90;;;;;;5074532;28;19923;-58
2022/01/10 00:58:03;;;;;;;;;;;19.90;36.90;;;;;;5074512;28;19983;-58
2022/01/10 01:00:28;;;;;;;;;;;19.80;36.90;;;;;;5074603;28;19966;-58
2022/01/10 01:02:54;;;;;;;;;;;19.80;36.90;;;;;;5074541;28;19908;-58
2022/01/10 01:05:21;;;;;;;;;;;19.80;36.90;;;;;;5074555;28;19912;-58
2022/01/10 01:07:47;;;;;;;;;;;19.80;36.90;;;;;;5074588;28;19930;-58
2022/01/10 01:10:43;;;;;;;;;;;19.80;36.90;;;;;;5074607;28;20002;-58
2022/01/10 01:13:08;;;;;;;;;;;19.80;36.90;;;;;;5074206;28;19912;-58
2022/01/10 01:15:45;;;;;;;;;;;19.80;36.80;;;;;;5074367;28;20273;-58
2022/01/10 01:18:17;;;;;;;;;;;19.80;36.90;;;;;;5074549;28;19954;-58
2022/01/10 01:24:00;;;;;;;;;;;19.80;36.90;;;;;;5074114;28;19912;-59
2022/01/10 01:26:14;;;;;;;;;;;19.70;36.80;;;;;;5059351;28;20006;-58
2022/01/10 01:28:39;;;;;;;;;;;19.80;36.80;;;;;;5074282;28;19963;-58
2022/01/10 01:31:05;;;;;;;;;;;19.70;36.80;;;;;;5073936;28;20417;-58
2022/01/10 01:33:30;;;;;;;;;;;19.70;36.80;;;;;;5056101;28;19999;-59
2022/01/10 01:35:56;;;;;;;;;;;19.70;36.80;;;;;;5073764;28;19917;-58
2022/01/10 01:38:21;;;;;;;;;;;19.70;36.90;;;;;;5073881;28;19909;-59
2022/01/10 01:41:09;;;;;;;;;;;19.70;36.80;;;;;;5073968;28;19916;-58
2022/01/10 01:43:34;;;;;;;;;;;19.70;36.80;;;;;;5073795;28;20361;-59
2022/01/10 01:46:00;;;;;;;;;;;19.70;36.80;;;;;;5073807;28;19908;-58
2022/01/10 01:48:25;;;;;;;;;;;19.70;36.80;;;;;;5073677;28;20368;-59
2022/01/10 01:50:50;;;;;;;;;;;19.70;36.80;;;;;;5073603;28;19908;-58
2022/01/10 01:53:16;;;;;;;;;;;19.70;36.80;;;;;;5073202;28;19909;-58
2022/01/10 01:55:43;;;;;;;;;;;19.70;36.80;;;;;;5073526;28;19923;-59
2022/01/10 01:58:09;;;;;;;;;;;19.70;36.80;;;;;;5073570;28;20051;-59
2022/01/10 02:00:34;;;;;;;;;;;19.60;36.70;;;;;;5073805;28;20324;-57
2022/01/10 02:03:00;;;;;;;;;;;19.70;36.70;;;;;;5055602;28;19970;-59
2022/01/10 02:05:26;;;;;;;;;;;19.70;36.70;;;;;;5073463;28;19933;-58
2022/01/10 02:07:52;;;;;;;;;;;19.70;36.70;;;;;;5073540;28;19909;-58
2022/01/10 02:10:18;;;;;;;;;;;19.60;36.80;;;;;;5073483;28;19954;-58
2022/01/10 02:12:44;;;;;;;;;;;19.60;36.70;;;;;;5073310;28;19938;-59
2022/01/10 02:15:21;;;;;;;;;;;19.60;36.70;;;;;;5073323;28;19917;-59
2022/01/10 02:17:48;;;;;;;;;;;19.60;36.80;;;;;;5073362;28;20365;-59
2022/01/10 02:20:14;;;;;;;;;;;19.60;36.80;;;;;;5073360;28;19909;-59
2022/01/10 02:22:39;;;;;;;;;;;19.60;36.80;;;;;;5073367;28;19917;-58
2022/01/10 02:25:05;;;;;;;;;;;19.50;36.70;;;;;;5073272;28;19908;-58
2022/01/10 02:27:31;;;;;;;;;;;19.50;36.70;;;;;;5073298;28;19909;-58
2022/01/10 02:29:56;;;;;;;;;;;19.50;36.70;;;;;;5073246;28;19909;-59
2022/01/10 02:32:22;;;;;;;;;;;19.50;36.70;;;;;;5073309;28;19908;-58
2022/01/10 02:34:47;;;;;;;;;;;19.50;36.70;;;;;;5073364;28;20017;-58
2022/01/10 02:37:29;;;;;;;;;;;19.50;36.70;;;;;;5073428;28;19912;-59
2022/01/10 02:39:54;;;;;;;;;;;19.50;36.70;;;;;;5073219;28;19913;-59
2022/01/10 02:42:20;;;;;;;;;;;19.50;36.70;;;;;;5073117;28;19916;-59
2022/01/10 02:44:45;;;;;;;;;;;19.50;36.70;;;;;;5073156;28;19962;-58
2022/01/10 02:47:10;;;;;;;;;;;19.50;36.70;;;;;;5073136;28;20409;-59
2022/01/10 02:49:37;;;;;;;;;;;19.50;36.60;;;;;;5073169;28;20391;-58
2022/01/10 02:52:03;;;;;;;;;;;19.50;36.60;;;;;;5073144;28;19908;-58
2022/01/10 02:54:28;;;;;;;;;;;19.50;36.70;;;;;;5072941;28;19924;-58
2022/01/10 02:56:55;;;;;;;;;;;19.50;36.70;;;;;;5073073;28;20358;-59
2022/01/10 02:59:21;;;;;;;;;;;19.50;36.70;;;;;;5072671;28;19920;-58
2022/01/10 03:01:47;;;;;;;;;;;19.50;36.60;;;;;;5072981;28;19935;-58
2022/01/10 03:04:12;;;;;;;;;;;19.50;36.60;;;;;;5075961;28;19908;-59
2022/01/10 03:06:39;;;;;;;;;;;19.50;36.60;;;;;;5076772;28;19934;-58
2022/01/10 03:09:06;;;;;;;;;;;19.40;36.60;;;;;;5076742;28;19912;-59
2022/01/10 03:11:35;;;;;;;;;;;19.50;36.60;;;;;;5076732;28;20360;-58
2022/01/10 03:14:00;;;;;;;;;;;19.40;36.60;;;;;;5076476;28;19916;-58
2022/01/10 03:16:26;;;;;;;;;;;19.40;36.60;;;;;;5076617;28;20279;-58
2022/01/10 03:18:51;;;;;;;;;;;19.40;36.60;;;;;;5076558;28;20368;-58
2022/01/10 03:21:20;;;;;;;;;;;19.50;36.60;;;;;;5075265;28;20025;-59
2022/01/10 03:23:46;;;;;;;;;;;19.50;36.60;;;;;;5076466;28;20276;-58
2022/01/10 03:26:11;;;;;;;;;;;19.40;36.60;;;;;;5076635;28;19909;-58
2022/01/10 03:28:37;;;;;;;;;;;19.40;36.60;;;;;;5076678;28;20229;-59
2022/01/10 03:31:02;;;;;;;;;;;19.40;36.60;;;;;;5076281;28;20003;-58
2022/01/10 03:33:28;;;;;;;;;;;19.40;36.60;;;;;;5058519;28;19918;-58
2022/01/10 03:35:54;;;;;;;;;;;19.40;36.60;;;;;;5076127;28;20287;-58
2022/01/10 03:38:20;;;;;;;;;;;19.40;36.60;;;;;;5076230;28;20023;-59
2022/01/10 03:40:45;;;;;;;;;;;19.40;36.60;;;;;;5076144;28;20353;-59
2022/01/10 03:43:11;;;;;;;;;;;19.40;36.50;;;;;;5076201;28;19951;-58
2022/01/10 03:45:36;;;;;;;;;;;19.40;36.60;;;;;;5076060;28;19959;-58
2022/01/10 03:48:01;;;;;;;;;;;19.40;36.60;;;;;;5075960;28;19915;-58
2022/01/10 03:50:27;;;;;;;;;;;19.30;36.60;;;;;;5076129;28;19915;-59
2022/01/10 03:52:52;;;;;;;;;;;19.40;36.60;;;;;;5075958;28;20408;-58
2022/01/10 03:55:18;;;;;;;;;;;19.30;36.50;;;;;;5057762;28;19916;-58
2022/01/10 03:57:43;;;;;;;;;;;19.30;36.60;;;;;;5075878;28;19909;-58
2022/01/10 04:00:09;;;;;;;;;;;19.30;36.50;;;;;;5075686;28;19927;-58
2022/01/10 04:02:37;;;;;;;;;;;19.30;36.50;;;;;;5075699;28;19999;-58
2022/01/10 04:05:02;;;;;;;;;;;19.30;36.60;;;;;;5075902;28;19908;-58
2022/01/10 04:07:28;;;;;;;;;;;19.30;36.50;;;;;;5075615;28;20414;-58
2022/01/10 04:09:53;;;;;;;;;;;19.30;36.50;;;;;;5075871;28;19931;-58
2022/01/10 04:12:20;;;;;;;;;;;19.30;36.50;;;;;;5075768;28;19913;-58
2022/01/10 04:14:46;;;;;;;;;;;19.30;36.50;;;;;;5074471;28;19943;-58
2022/01/10 04:17:13;;;;;;;;;;;19.30;36.50;;;;;;5075599;28;19958;-59
2022/01/10 04:19:38;;;;;;;;;;;19.30;36.50;;;;;;5075471;28;19908;-58
2022/01/10 04:22:04;;;;;;;;;;;19.30;36.50;;;;;;5075441;28;20336;-58
2022/01/10 04:24:29;;;;;;;;;;;19.30;36.40;;;;;;5075356;28;19908;-59
2022/01/10 04:26:55;;;;;;;;;;;19.30;36.50;;;;;;5075490;28;19954;-59
2022/01/10 04:29:20;;;;;;;;;;;19.30;36.50;;;;;;5075327;28;20283;-59
2022/01/10 04:31:46;;;;;;;;;;;19.30;36.50;;;;;;5075260;28;19909;-59
2022/01/10 04:34:12;;;;;;;;;;;19.30;36.50;;;;;;5075127;28;20007;-59
2022/01/10 04:36:38;;;;;;;;;;;19.20;36.40;;;;;;5075261;28;19917;-59
2022/01/10 04:39:03;;;;;;;;;;;19.20;36.40;;;;;;5075043;28;19915;-58
2022/01/10 04:41:29;;;;;;;;;;;19.20;36.40;;;;;;5075284;28;19912;-58
2022/01/10 04:43:54;;;;;;;;;;;19.20;36.40;;;;;;5074939;28;20314;-58
2022/01/10 04:46:20;;;;;;;;;;;19.20;36.40;;;;;;5074890;28;19967;-58
2022/01/10 04:48:45;;;;;;;;;;;19.20;36.50;;;;;;5074852;28;19916;-59
2022/01/10 04:51:15;;;;;;;;;;;19.20;36.40;;;;;;5074844;28;19915;-58
2022/01/10 04:53:42;;;;;;;;;;;19.20;36.40;;;;;;5074974;28;19916;-58
2022/01/10 04:56:07;;;;;;;;;;;19.20;36.40;;;;;;5074622;28;19916;-58
2022/01/10 04:58:34;;;;;;;;;;;19.20;36.40;;;;;;5074280;28;19927;-58
2022/01/10 05:01:02;;;;;;;;;;;19.20;36.40;;;;;;5074860;28;19955;-58
2022/01/10 05:03:27;;;;;;;;;;;19.20;36.30;;;;;;5074489;28;19953;-58
2022/01/10 05:05:54;;;;;;;;;;;19.10;36.40;;;;;;5074758;28;19995;-58
2022/01/10 05:08:22;;;;;;;;;;;19.20;36.40;;;;;;5074695;28;19912;-58
2022/01/10 05:10:48;;;;;;;;;;;19.10;36.40;;;;;;5073145;28;20206;-58
2022/01/10 05:13:14;;;;;;;;;;;19.20;36.40;;;;;;5074403;28;19916;-59
2022/01/10 05:15:39;;;;;;;;;;;19.20;36.40;;;;;;5074315;28;19913;-59
2022/01/10 05:18:04;;;;;;;;;;;19.20;36.30;;;;;;5074241;28;19908;-58
2022/01/10 05:20:30;;;;;;;;;;;19.20;36.30;;;;;;5074207;28;19909;-58
2022/01/10 05:22:55;;;;;;;;;;;19.20;36.30;;;;;;5074514;28;19909;-58
2022/01/10 05:25:21;;;;;;;;;;;19.20;36.30;;;;;;5074030;28;19909;-58
2022/01/10 05:27:46;;;;;;;;;;;19.20;36.20;;;;;;5074063;28;19908;-58
2022/01/10 05:30:12;;;;;;;;;;;19.30;36.20;;;;;;5074002;28;19909;-58
2022/01/10 05:32:37;;;;;;;;;;;19.30;36.10;;;;;;5073902;28;19912;-59
2022/01/10 05:35:03;;;;;;;;;;;19.30;36.10;;;;;;5074056;28;19913;-58
2022/01/10 05:37:29;;;;;;;;;;;19.30;36.10;;;;;;5072607;28;20007;-58
2022/01/10 05:39:54;;;;;;;;;;;19.40;36.00;;;;;;5074026;28;19991;-58
2022/01/10 05:42:20;;;;;;;;;;;19.40;36.00;;;;;;5073857;28;19916;-58
2022/01/10 05:44:45;;;;;;;;;;;19.40;36.00;;;;;;5073780;28;19916;-58
2022/01/10 05:47:11;;;;;;;;;;;19.50;36.00;;;;;;5055767;28;19908;-58
2022/01/10 05:49:44;;;;;;;;;;;19.50;35.90;;;;;;5073949;28;19962;-58
2022/01/10 05:52:10;;;;;;;;;;;19.50;35.90;;;;;;5073568;28;20292;-59
2022/01/10 05:54:35;;;;;;;;;;;19.50;35.80;;;;;;5072334;28;19908;-58
2022/01/10 05:57:01;;;;;;;;;;;19.50;35.90;;;;;;5055601;28;19916;-58
2022/01/10 05:59:27;;;;;;;;;;;19.50;35.80;;;;;;5073404;28;19921;-58
2022/01/10 06:01:52;;;;;;;;;;;19.50;35.80;;;;;;5073488;28;19908;-58
2022/01/10 06:04:18;;;;;;;;;;;19.50;35.80;;;;;;5073773;28;19912;-57
2022/01/10 06:06:43;;;;;;;;;;;19.60;35.80;;;;;;5073703;28;19909;-58
2022/01/10 06:09:09;;;;;;;;;;;19.50;35.80;;;;;;5073589;28;19913;-58
2022/01/10 06:11:34;;;;;;;;;;;19.60;35.80;;;;;;5073402;28;19908;-58
2022/01/10 06:14:00;;;;;;;;;;;19.60;35.80;;;;;;5073408;28;19908;-58
2022/01/10 06:16:25;;;;;;;;;;;19.60;35.70;;;;;;5073225;28;20380;-58
2022/01/10 06:18:50;;;;;;;;;;;19.60;35.80;;;;;;5055352;28;19931;-58
2022/01/10 06:21:16;;;;;;;;;;;19.60;35.70;;;;;;5073656;28;19908;-58
2022/01/10 06:23:41;;;;;;;;;;;19.70;35.80;;;;;;5073276;28;19915;-59
2022/01/10 06:26:07;;;;;;;;;;;19.70;35.70;;;;;;5073609;28;20000;-58
2022/01/10 06:28:32;;;;;;;;;;;19.60;35.70;;;;;;5073294;28;19908;-58
2022/01/10 06:30:58;;;;;;;;;;;19.70;35.70;;;;;;5073238;28;19908;-58
2022/01/10 06:33:23;;;;;;;;;;;19.70;35.70;;;;;;5073183;28;20007;-59
2022/01/10 06:35:48;;;;;;;;;;;19.70;35.60;;;;;;5073103;28;19920;-58
2022/01/10 06:38:14;;;;;;;;;;;19.70;35.60;;;;;;5074680;28;19954;-57
2022/01/10 06:40:39;;;;;;;;;;;19.70;35.60;;;;;;5077275;28;19908;-58
2022/01/10 06:43:05;;;;;;;;;;;19.80;35.60;;;;;;5077199;28;19909;-58
2022/01/10 06:45:30;;;;;;;;;;;19.70;35.60;;;;;;5077282;28;20375;-58
2022/01/10 06:47:56;;;;;;;;;;;19.80;35.60;;;;;;5077396;28;19916;-58
2022/01/10 06:50:21;;;;;;;;;;;19.80;35.60;;;;;;5076939;28;20355;-59
2022/01/10 06:52:47;;;;;;;;;;;19.80;35.60;;;;;;5077192;28;19915;-58
2022/01/10 06:55:12;;;;;;;;;;;19.80;35.60;;;;;;5077037;28;20283;-58
2022/01/10 06:57:38;;;;;;;;;;;19.80;35.60;;;;;;5076799;28;19916;-59
2022/01/10 07:00:04;;;;;;;;;;;19.80;35.50;;;;;;5076757;28;19954;-59
2022/01/10 07:02:29;;;;;;;;;;;19.80;35.50;;;;;;5076781;28;19915;-58
2022/01/10 07:04:55;;;;;;;;;;;19.80;35.50;;;;;;5076797;28;19908;-58
2022/01/10 07:07:21;;;;;;;;;;;19.90;35.50;;;;;;5076884;28;19944;-58
2022/01/10 07:09:46;;;;;;;;;;;19.90;35.50;;;;;;5076761;28;20439;-58
2022/01/10 07:12:12;;;;;;;;;;;19.90;35.50;;;;;;5076605;28;19915;-58
2022/01/10 07:14:38;;;;;;;;;;;19.90;35.50;;;;;;5076607;28;19908;-58
2022/01/10 07:17:03;;;;;;;;;;;19.90;35.50;;;;;;5076804;28;20429;-58
2022/01/10 07:19:29;;;;;;;;;;;20.00;35.50;;;;;;5076786;28;19919;-58
2022/01/10 07:21:54;;;;;;;;;;;19.90;35.60;;;;;;5074364;28;20344;-55
2022/01/10 07:24:20;;;;;;;;;;;18.20;34.90;;;;;;5063749;28;19909;-55
2022/01/10 07:26:45;;;;;;;;;;;16.50;37.50;;;;;;5088632;28;20166;-55
2022/01/10 07:29:12;;;;;;;;;;;15.70;39.20;;;;;;5094985;28;19999;-56
2022/01/10 07:31:38;;;;;;;;;;;15.30;39.50;;;;;;5076535;28;20054;-57
2022/01/10 07:34:03;;;;;;;;;;;15.00;40.00;;;;;;5085887;28;19919;-58
2022/01/10 07:36:29;;;;;;;;;;;15.20;40.20;;;;;;5076007;28;19924;-59
2022/01/10 07:38:54;;;;;;;;;;;17.10;37.40;;;;;;5092305;28;19948;-54
2022/01/10 07:41:20;;;;;;;;;;;18.10;36.00;;;;;;5094176;28;20005;-57
2022/01/10 07:43:45;;;;;;;;;;;18.60;35.50;;;;;;5093271;28;19912;-57
2022/01/10 07:46:11;;;;;;;;;;;18.90;35.10;;;;;;5093472;28;20355;-58
2022/01/10 07:48:38;;;;;;;;;;;18.80;34.30;;;;;;5092383;28;20012;-59
2022/01/10 07:51:08;;;;;;;;;;;18.70;35.80;;;;;;5091847;28;20002;-58
2022/01/10 07:53:34;;;;;;;;;;;19.00;35.80;;;;;;5092619;28;19912;-58
2022/01/10 07:55:59;;;;;;;;;;;19.30;35.40;;;;;;5094505;28;20429;-58
2022/01/10 07:58:25;;;;;;;;;;;18.90;35.50;;;;;;5094042;28;19920;-57
2022/01/10 08:00:50;;;;;;;;;;;19.30;35.40;;;;;;5093639;28;19914;-58
2022/01/10 08:03:16;;;;;;;;;;;19.50;35.50;;;;;;5075006;28;19908;-59
2022/01/10 08:05:41;;;;;;;;;;;19.50;35.30;;;;;;5073447;28;19970;-58
2022/01/10 08:08:07;;;;;;;;;;;19.60;35.30;;;;;;5094727;28;19912;-58
2022/01/10 08:10:32;;;;;;;;;;;19.60;35.30;;;;;;5090480;28;19920;-60
2022/01/10 08:12:58;;;;;;;;;;;19.70;35.40;;;;;;5075170;28;19966;-59
2022/01/10 08:15:23;;;;;;;;;;;19.70;35.40;;;;;;5088553;28;19961;-59
2022/01/10 08:17:49;;;;;;;;;;;19.80;35.40;;;;;;5084014;28;19921;-59
2022/01/10 08:20:14;;;;;;;;;;;19.80;35.50;;;;;;5088236;28;19912;-58
2022/01/10 08:22:40;;;;;;;;;;;19.80;35.50;;;;;;5074715;28;20271;-60
2022/01/10 08:25:07;;;;;;;;;;;19.80;35.50;;;;;;5079470;28;20283;-60
2022/01/10 08:27:33;;;;;;;;;;;19.90;35.60;;;;;;5091310;28;19916;-59
2022/01/10 08:29:58;;;;;;;;;;;19.90;35.60;;;;;;5074654;28;20307;-60
2022/01/10 08:32:24;;;;;;;;;;;20.00;35.50;;;;;;5075813;28;19920;-58
2022/01/10 08:34:50;;;;;;;;;;;20.00;35.60;;;;;;5091530;28;19919;-56
2022/01/10 08:37:15;;;;;;;;;;;20.00;35.70;;;;;;5071884;28;20014;-56
2022/01/10 08:39:41;;;;;;;;;;;20.00;35.80;;;;;;5082221;28;19986;-59
2022/01/10 08:42:06;;;;;;;;;;;20.00;35.80;;;;;;5093812;28;19915;-59
2022/01/10 08:44:32;;;;;;;;;;;20.10;35.60;;;;;;5090234;28;19920;-59
2022/01/10 08:46:57;;;;;;;;;;;20.10;35.60;;;;;;5072917;28;20390;-60
2022/01/10 08:49:23;;;;;;;;;;;20.10;35.70;;;;;;5079462;28;19912;-60
2022/01/10 08:51:54;;;;;;;;;;;20.10;35.80;;;;;;5089292;28;19916;-60
2022/01/10 08:54:22;;;;;;;;;;;20.10;35.90;;;;;;5092623;28;19916;-61
2022/01/10 08:56:48;;;;;;;;;;;20.20;35.70;;;;;;5073633;28;20302;-61
2022/01/10 08:59:14;;;;;;;;;;;20.30;35.60;;;;;;5075918;28;20016;-61
2022/01/10 09:01:39;;;;;;;;;;;20.30;35.80;;;;;;5072000;28;20271;-64
2022/01/10 09:04:05;;;;;;;;;;;20.30;36.00;;;;;;5076650;28;19912;-62
2022/01/10 09:06:30;;;;;;;;;;;20.30;35.70;;;;;;5091786;28;19931;-62
2022/01/10 09:08:55;;;;;;;;;;;20.30;35.90;;;;;;5073480;28;19920;-61
2022/01/10 09:11:21;;;;;;;;;;;20.40;36.00;;;;;;5080909;28;19959;-64
2022/01/10 09:13:46;;;;;;;;;;;20.40;36.00;;;;;;5091345;28;19916;-62
2022/01/10 09:16:14;;;;;;;;;;;20.40;36.20;;;;;;5092014;28;19916;-62
2022/01/10 09:18:40;;;;;;;;;;;20.50;36.30;;;;;;5089258;28;19921;-62
2022/01/10 09:21:05;;;;;;;;;;;20.50;36.20;;;;;;5087367;28;19927;-62
2022/01/10 09:23:31;;;;;;;;;;;20.50;36.20;;;;;;5092270;28;19908;-62
2022/01/10 09:25:56;;;;;;;;;;;20.50;36.20;;;;;;5089393;28;19959;-62
2022/01/10 09:28:22;;;;;;;;;;;20.50;36.20;;;;;;5090966;28;19912;-60
2022/01/10 09:30:47;;;;;;;;;;;20.60;36.30;;;;;;5089388;28;20402;-60
2022/01/10 09:33:13;;;;;;;;;;;20.60;36.50;;;;;;5089805;28;20017;-61
2022/01/10 09:35:39;;;;;;;;;;;20.60;36.70;;;;;;5108620;28;20503;-61
2022/01/10 09:38:05;;;;;;;;;;;20.70;36.50;;;;;;5090046;28;19912;-61
2022/01/10 09:40:31;;;;;;;;;;;20.70;36.50;;;;;;5101146;28;19915;-63
2022/01/10 09:42:57;;;;;;;;;;;20.70;36.50;;;;;;5097384;28;20280;-63
2022/01/10 09:45:22;;;;;;;;;;;20.70;36.50;;;;;;5093865;28;19912;-62
2022/01/10 09:47:48;;;;;;;;;;;20.70;36.60;;;;;;5098776;28;19912;-63
2022/01/10 09:50:16;;;;;;;;;;;20.80;36.50;;;;;;5099329;28;19912;-62
2022/01/10 09:52:42;;;;;;;;;;;20.80;36.60;;;;;;5085027;28;19943;-61
2022/01/10 09:55:08;;;;;;;;;;;20.80;36.80;;;;;;5101007;28;19916;-60
2022/01/10 09:57:33;;;;;;;;;;;20.80;36.90;;;;;;5091614;28;20345;-56
2022/01/10 09:59:58;;;;;;;;;;;21.00;36.80;;;;;;5084410;28;19924;-56
2022/01/10 10:02:31;;;;;;;;;;;21.00;36.70;;;;;;5084781;28;19913;-53
2022/01/10 10:04:56;;;;;;;;;;;21.00;37.10;;;;;;5078946;28;19998;-52
2022/01/10 10:07:23;;;;;;;;;;;21.00;37.00;;;;;;5084415;28;20011;-52
2022/01/10 10:09:48;;;;;;;;;;;21.00;36.80;;;;;;5081456;28;20310;-52
2022/01/10 10:12:14;;;;;;;;;;;21.00;36.90;;;;;;5085505;28;19931;-53
2022/01/10 10:14:41;;;;;;;;;;;21.00;36.90;;;;;;5079672;28;20383;-54
2022/01/10 10:17:13;;;;;;;;;;;21.10;37.10;;;;;;5089194;28;20019;-51
2022/01/10 10:19:38;;;;;;;;;;;21.10;36.80;;;;;;5090474;28;19912;-55
2022/01/10 10:22:04;;;;;;;;;;;21.10;37.20;;;;;;5090034;28;19908;-55
2022/01/10 10:24:29;;;;;;;;;;;21.10;37.10;;;;;;5084970;28;19970;-55
2022/01/10 10:26:56;;;;;;;;;;;21.20;37.20;;;;;;5089496;28;20332;-53
2022/01/10 10:29:21;;;;;;;;;;;21.20;37.20;;;;;;5090020;28;19927;-54
2022/01/10 10:31:48;;;;;;;;;;;21.10;37.30;;;;;;5088479;28;19911;-51
2022/01/10 10:34:19;;;;;;;;;;;21.20;37.20;;;;;;5075357;28;19913;-52
2022/01/10 10:36:46;;;;;;;;;;;21.20;37.30;;;;;;5079484;28;19920;-55
2022/01/10 10:39:11;;;;;;;;;;;21.20;37.30;;;;;;5083055;28;20421;-51
2022/01/10 10:41:38;;;;;;;;;;;21.20;37.20;;;;;;5090958;28;19912;-53
2022/01/10 10:44:04;;;;;;;;;;;21.20;37.30;;;;;;5089759;28;19958;-53
2022/01/10 10:46:29;;;;;;;;;;;21.20;37.40;;;;;;5090856;28;19954;-52
2022/01/10 10:49:00;;;;;;;;;;;21.30;37.50;;;;;;5088292;28;19955;-52
2022/01/10 10:51:26;;;;;;;;;;;21.30;37.50;;;;;;5090164;28;19931;-50
2022/01/10 10:53:51;;;;;;;;;;;21.30;37.50;;;;;;5087263;28;19927;-52
2022/01/10 10:56:17;;;;;;;;;;;21.30;37.60;;;;;;5085830;28;19919;-52
2022/01/10 10:58:42;;;;;;;;;;;21.30;37.70;;;;;;5083475;28;19920;-54
2022/01/10 11:01:08;;;;;;;;;;;21.40;37.70;;;;;;5085178;28;19917;-52
2022/01/10 11:03:34;;;;;;;;;;;21.40;37.80;;;;;;5088149;28;20035;-54
2022/01/10 11:06:03;;;;;;;;;;;21.40;37.70;;;;;;5090511;28;19920;-54
2022/01/10 11:08:31;;;;;;;;;;;21.50;37.80;;;;;;5077543;28;20376;-54
2022/01/10 11:10:59;;;;;;;;;;;21.50;37.70;;;;;;5090882;28;21168;-51
2022/01/10 11:13:25;;;;;;;;;;;21.50;37.60;;;;;;5088988;28;19912;-54
2022/01/10 11:15:51;;;;;;;;;;;21.50;37.60;;;;;;5090835;28;19926;-53
2022/01/10 11:18:17;;;;;;;;;;;21.40;37.80;;;;;;5090694;28;20306;-55
2022/01/10 11:20:44;;;;;;;;;;;21.40;37.80;;;;;;5090449;28;19912;-56
2022/01/10 11:23:10;;;;;;;;;;;21.50;37.70;;;;;;5091254;28;19977;-50
2022/01/10 11:25:37;;;;;;;;;;;21.50;37.60;;;;;;5094438;28;20291;-54
2022/01/10 11:28:20;;;;;;;;;;;21.50;37.80;;;;;;5075549;28;19990;-50
2022/01/10 11:30:46;;;;;;;;;;;21.50;37.70;;;;;;5092465;28;19919;-55
2022/01/10 11:33:15;;;;;;;;;;;21.50;37.70;;;;;;5094179;28;20267;-52
2022/01/10 11:35:40;;;;;;;;;;;21.50;37.70;;;;;;5086868;28;19920;-53
2022/01/10 11:38:18;;;;;;;;;;;21.50;37.70;;;;;;5081375;28;19968;-52
2022/01/10 11:40:44;;;;;;;;;;;21.50;37.70;;;;;;5077833;28;19916;-54
2022/01/10 11:43:25;;;;;;;;;;;21.50;37.70;;;;;;5074406;28;19917;-52
2022/01/10 11:46:04;;;;;;;;;;;21.50;37.70;;;;;;5088927;28;20425;-52
2022/01/10 11:49:05;;;;;;;;;;;21.50;37.70;;;;;;5079054;28;19927;-53
2022/01/10 11:51:34;;;;;;;;;;;21.50;37.60;;;;;;5016728;28;19917;-54
2022/01/10 11:54:01;;;;;;;;;;;21.50;37.50;;;;;;5078588;28;19916;-51
2022/01/10 11:56:28;;;;;;;;;;;21.50;37.60;;;;;;5082648;28;20287;-56
2022/01/10 11:59:06;;;;;;;;;;;21.50;37.60;;;;;;5092878;28;19931;-54
2022/01/10 12:01:33;;;;;;;;;;;21.50;37.50;;;;;;5089204;28;19916;-54
2022/01/10 12:03:58;;;;;;;;;;;21.50;37.60;;;;;;5091004;28;19912;-52
2022/01/10 12:06:25;;;;;;;;;;;21.60;37.60;;;;;;5092040;28;19972;-51
2022/01/10 12:08:55;;;;;;;;;;;21.60;37.50;;;;;;5090885;28;20433;-55
2022/01/10 12:11:24;;;;;;;;;;;21.60;37.40;;;;;;5073608;28;19909;-53
2022/01/10 12:13:52;;;;;;;;;;;21.60;37.50;;;;;;5090063;28;19916;-53
2022/01/10 12:16:17;;;;;;;;;;;21.50;37.60;;;;;;5092930;28;19916;-50
2022/01/10 12:18:43;;;;;;;;;;;21.70;37.50;;;;;;5088734;28;19921;-54
2022/01/10 12:21:08;;;;;;;;;;;21.60;37.50;;;;;;5082714;28;19920;-53
2022/01/10 12:23:34;;;;;;;;;;;21.60;37.50;;;;;;5056134;28;19909;-54
2022/01/10 12:25:59;;;;;;;;;;;21.60;37.50;;;;;;5088502;28;19917;-52
2022/01/10 12:28:27;;;;;;;;;;;21.60;37.50;;;;;;5090403;28;19908;-53
2022/01/10 12:30:53;;;;;;;;;;;21.70;37.50;;;;;;5093315;28;19912;-50
2022/01/10 12:33:18;;;;;;;;;;;21.60;37.50;;;;;;5091889;28;19918;-53
2022/01/10 12:35:44;;;;;;;;;;;21.70;37.50;;;;;;5090105;28;19920;-52
2022/01/10 12:38:09;;;;;;;;;;;21.70;37.50;;;;;;5091582;28;19920;-52
2022/01/10 12:40:35;;;;;;;;;;;21.90;37.10;;;;;;5092533;28;19919;-53
2022/01/10 12:43:00;;;;;;;;;;;21.80;37.20;;;;;;5089649;28;19916;-52
2022/01/10 12:45:31;;;;;;;;;;;21.80;37.30;;;;;;5087624;28;21645;-52
2022/01/10 12:47:56;;;;;;;;;;;21.70;37.40;;;;;;5092052;28;19957;-51
2022/01/10 12:50:22;;;;;;;;;;;21.50;37.60;;;;;;5092375;28;19971;-56
2022/01/10 12:52:47;;;;;;;;;;;21.50;37.60;;;;;;5092963;28;20388;-53
2022/01/10 12:55:13;;;;;;;;;;;21.60;37.60;;;;;;5080074;28;19973;-54
2022/01/10 12:57:38;;;;;;;;;;;21.70;37.40;;;;;;5079291;28;19917;-54
2022/01/10 13:00:05;;;;;;;;;;;21.70;37.40;;;;;;5092229;28;20388;-52
2022/01/10 13:02:32;;;;;;;;;;;21.70;37.40;;;;;;5082650;28;19947;-53
2022/01/10 13:04:58;;;;;;;;;;;21.70;37.30;;;;;;5066938;28;19912;-51
2022/01/10 13:07:23;;;;;;;;;;;21.70;37.30;;;;;;5083117;28;19935;-52
2022/01/10 13:09:49;;;;;;;;;;;21.80;37.40;;;;;;5090851;28;19920;-53
2022/01/10 13:12:28;;;;;;;;;;;21.80;37.30;;;;;;5092925;28;19990;-55
2022/01/10 13:15:02;;;;;;;;;;;21.80;37.40;;;;;;5092941;28;19919;-55
2022/01/10 13:17:28;;;;;;;;;;;21.80;37.40;;;;;;5089256;28;19920;-51
2022/01/10 13:20:19;;;;;;;;;;;21.80;37.40;;;;;;5091510;28;19912;-52
2022/01/10 13:22:45;;;;;;;;;;;21.80;37.40;;;;;;5070272;28;20383;-53
2022/01/10 13:25:12;;;;;;;;;;;21.90;37.30;;;;;;5090361;28;19912;-50
2022/01/10 13:27:38;;;;;;;;;;;21.90;37.20;;;;;;5092201;28;19912;-53
2022/01/10 13:30:11;;;;;;;;;;;21.80;37.30;;;;;;5092599;28;19920;-50
2022/01/10 13:32:37;;;;;;;;;;;21.80;37.30;;;;;;5091715;28;20004;-56
2022/01/10 13:35:04;;;;;;;;;;;21.80;37.30;;;;;;5091930;28;19958;-55
2022/01/10 13:37:30;;;;;;;;;;;22.00;37.20;;;;;;5091993;28;19920;-56
2022/01/10 13:39:59;;;;;;;;;;;22.00;37.10;;;;;;5084493;28;19917;-56
2022/01/10 13:42:25;;;;;;;;;;;22.00;37.20;;;;;;5090765;28;19912;-57
2022/01/10 13:44:57;;;;;;;;;;;22.00;37.20;;;;;;5088624;28;19918;-57
2022/01/10 13:47:23;;;;;;;;;;;21.90;37.40;;;;;;5082495;28;19999;-52
2022/01/10 13:49:49;;;;;;;;;;;22.00;37.40;;;;;;5082502;28;20006;-55
2022/01/10 13:52:16;;;;;;;;;;;21.90;37.40;;;;;;5091282;28;19931;-57
2022/01/10 13:54:41;;;;;;;;;;;21.90;37.40;;;;;;5091802;28;19912;-55
2022/01/10 13:57:22;;;;;;;;;;;21.90;37.40;;;;;;5091279;28;19973;-55
2022/01/10 14:00:23;;;;;;;;;;;21.90;37.40;;;;;;5090895;28;20287;-56
2022/01/10 14:02:50;;;;;;;;;;;21.80;37.30;;;;;;5069595;28;20358;-59
2022/01/10 14:05:24;;;;;;;;;;;21.90;37.30;;;;;;5081539;28;19934;-56
2022/01/10 14:07:50;;;;;;;;;;;22.00;37.30;;;;;;5085886;28;20360;-57
2022/01/10 14:10:16;;;;;;;;;;;22.00;37.30;;;;;;5075826;28;19915;-57
2022/01/10 14:12:42;;;;;;;;;;;21.90;37.30;;;;;;5092945;28;19908;-56
2022/01/10 14:15:07;;;;;;;;;;;21.90;37.30;;;;;;5090048;28;19916;-57
2022/01/10 14:17:33;;;;;;;;;;;21.90;37.30;;;;;;5077308;28;19927;-56